< < Back
Terminal Aerodrome Forecast


Current Version              Previous Versions:   1  2  3  4  5  6  7  8  9  

Terminal Aerodrome Forecast

849
FTUS42 KTAE 022231 AAB
TAFTLH
TAF AMD
KTLH 022231Z 0223/0318 20010KT P6SM VCTS SCT050CB BKN250
     FM030000 29002KT P6SM OVC100
     FM030900 00000KT 5SM BR SCT250
     FM031300 31003KT P6SM SCT250=



Latest METAR

869
SAUS80 KWBC 031700 RRA
MTRTLH
METAR KTLH 031653Z 34004KT 10SM FEW040 BKN250 34/22 A2998 RMK AO2 SLP149
T03440222 $


USA.gov is the U.S. government's official web portal to all federal, state and local government web resources and services.